Time;durP1;ratioP1;P1;durP2;ratioP2;P2;SDS_P1;SDS_P2;PMS_P1;PMS_P2;Temp;Humidity;BMP_temperature;BMP_pressure;BME280_temperature;BME280_humidity;BME280_pressure;Samples;Min_cycle;Max_cycle;Signal;HPM_P1;HPM_P2
2022/10/06 00:00:31;;;;;;;5.90;3.00;;;;;;;11.40;80.37;100254.56;109564;1271;22429;-68
2022/10/06 00:02:58;;;;;;;9.20;3.30;;;;;;;11.40;80.09;100254.83;109649;1269;23599;-68
2022/10/06 00:05:25;;;;;;;6.90;3.00;;;;;;;11.41;80.04;100254.90;109612;1271;22451;-68
2022/10/06 00:07:52;;;;;;;10.70;3.50;;;;;;;11.42;79.89;100256.99;109633;1270;22483;-69
2022/10/06 00:10:18;;;;;;;;;;;;;;;11.43;79.80;100261.83;109659;1270;22477;-67
2022/10/06 00:12:46;;;;;;;5.30;2.70;;;;;;;11.44;79.68;100263.53;109666;1270;22221;-67
2022/10/06 00:15:16;;;;;;;5.90;2.80;;;;;;;11.45;79.74;100259.06;109487;1273;22411;-67
2022/10/06 00:17:43;;;;;;;10.00;3.40;;;;;;;11.46;79.35;100257.62;109613;1270;22477;-68
2022/10/06 00:20:10;;;;;;;;;;;;;;;11.46;79.22;100257.85;109527;1272;22829;-68
2022/10/06 00:22:41;;;;;;;6.70;3.20;;;;;;;11.49;79.10;100259.14;109431;1273;23249;-68
2022/10/06 00:25:09;;;;;;;8.10;3.10;;;;;;;11.50;78.96;100258.84;109554;1273;22300;-67
2022/10/06 00:27:40;;;;;;;7.80;3.00;;;;;;;11.52;78.89;100259.00;109478;1273;23121;-67
2022/10/06 00:30:11;;;;;;;8.40;3.00;;;;;;;11.53;78.71;100254.27;109511;1273;23188;-67
2022/10/06 00:32:38;;;;;;;7.00;2.80;;;;;;;11.53;78.72;100252.02;109363;1273;22507;-67
2022/10/06 00:35:05;;;;;;;;;;;;;;;11.53;78.57;100253.45;109501;1273;22475;-67
2022/10/06 00:37:34;;;;;;;6.80;3.30;;;;;;;11.53;78.63;100252.20;109493;1273;22215;-68
2022/10/06 00:40:05;;;;;;;10.40;3.20;;;;;;;11.53;78.58;100255.09;107857;1273;25336;-65
2022/10/06 00:42:32;;;;;;;11.70;3.10;;;;;;;11.53;78.52;100256.17;104975;1273;23002;-67
2022/10/06 00:44:59;;;;;;;;;;;;;;;11.51;78.43;100254.87;105057;1273;24462;-65
2022/10/06 00:47:26;;;;;;;11.60;3.40;;;;;;;11.49;78.44;100252.05;104963;1273;22563;-67
2022/10/06 00:49:53;;;;;;;6.40;3.00;;;;;;;11.46;78.53;100248.55;104970;1276;22799;-66
2022/10/06 00:52:21;;;;;;;4.40;2.80;;;;;;;11.44;78.61;100238.90;105026;1273;22785;-66
2022/10/06 00:54:48;;;;;;;12.20;3.60;;;;;;;11.41;78.69;100238.53;105003;1274;24293;-67
2022/10/06 00:57:15;;;;;;;;;;;;;;;11.38;78.53;100231.79;105161;1271;22545;-67
2022/10/06 00:59:41;;;;;;;4.80;3.10;;;;;;;11.35;78.96;100228.95;105098;1273;22779;-65
2022/10/06 01:02:19;;;;;;;;;;;;;;;11.32;78.92;100230.98;105211;1272;23345;-66
2022/10/06 01:04:49;;;;;;;6.20;2.90;;;;;;;11.30;79.04;100231.41;109498;1271;22514;-66
2022/10/06 01:07:17;;;;;;;6.30;2.90;;;;;;;11.27;79.17;100233.98;109486;1273;22461;-65
2022/10/06 01:09:44;;;;;;;6.00;3.00;;;;;;;11.26;79.27;100232.80;109416;1273;22403;-66
2022/10/06 01:12:11;;;;;;;6.80;3.10;;;;;;;11.25;79.14;100234.48;109403;1273;22479;-65
2022/10/06 01:14:38;;;;;;;;;;;;;;;11.25;79.46;100236.02;109529;1273;22504;-65
2022/10/06 01:17:18;;;;;;;4.70;2.70;;;;;;;11.24;79.34;100234.76;109558;1272;22555;-67
2022/10/06 01:19:50;;;;;;;9.60;3.00;;;;;;;11.23;79.22;100232.43;109558;1270;22450;-67
2022/10/06 01:22:24;;;;;;;6.40;3.10;;;;;;;11.22;79.43;100235.92;109462;1271;22442;-66
2022/10/06 01:24:51;;;;;;;6.70;3.20;;;;;;;11.23;79.40;100230.87;109640;1270;22541;-67
2022/10/06 01:27:19;;;;;;;10.20;3.70;;;;;;;11.24;79.38;100225.70;109454;1271;23264;-65
2022/10/06 01:29:45;;;;;;;7.30;3.60;;;;;;;11.23;79.39;100231.20;109511;1271;22634;-64
2022/10/06 01:32:12;;;;;;;6.30;3.40;;;;;;;11.22;79.23;100227.74;109471;1271;22438;-64
2022/10/06 01:34:39;;;;;;;;;;;;;;;11.22;79.45;100228.83;109436;1271;22481;-64
2022/10/06 01:37:05;;;;;;;8.90;3.40;;;;;;;11.23;79.66;100226.98;109525;1271;22435;-64
2022/10/06 01:39:32;;;;;;;8.30;3.30;;;;;;;11.22;79.66;100230.13;109516;1271;22505;-65
2022/10/06 01:41:59;;;;;;;;;;;;;;;11.22;79.69;100230.02;109493;1271;22472;-65
2022/10/06 01:44:26;;;;;;;7.00;3.30;;;;;;;11.22;79.79;100227.67;109476;1271;22430;-65
2022/10/06 01:46:52;;;;;;;;;;;;;;;11.21;80.08;100228.53;109686;1271;22489;-65
2022/10/06 01:49:19;;;;;;;4.80;2.70;;;;;;;11.19;79.90;100225.27;109563;1271;23197;-65
2022/10/06 01:51:47;;;;;;;7.60;2.90;;;;;;;11.17;79.79;100227.57;109557;1271;23358;-64
2022/10/06 01:54:13;;;;;;;;;;;;;;;11.15;80.04;100228.84;109657;1271;22497;-64
2022/10/06 01:56:40;;;;;;;7.00;3.00;;;;;;;11.13;80.06;100233.22;109680;1271;22573;-64
2022/10/06 01:59:07;;;;;;;7.30;3.50;;;;;;;11.11;80.23;100230.36;109597;1271;22482;-65
2022/10/06 02:01:34;;;;;;;;;;;;;;;11.10;80.14;100229.21;109530;1271;22557;-66
2022/10/06 02:04:01;;;;;;;6.90;3.90;;;;;;;11.09;80.59;100234.48;109542;1271;23617;-65
2022/10/06 02:06:29;;;;;;;3.90;2.60;;;;;;;11.07;80.42;100240.21;109592;1271;22452;-66
2022/10/06 02:08:57;;;;;;;8.70;2.70;;;;;;;11.05;80.47;100245.67;109500;1271;23244;-66
2022/10/06 02:11:23;;;;;;;;;;;;;;;11.04;80.39;100243.09;109672;1271;22502;-65
2022/10/06 02:13:50;;;;;;;7.40;2.90;;;;;;;11.02;80.45;100235.04;109538;1271;22239;-66
2022/10/06 02:16:17;;;;;;;;;;;;;;;11.02;80.59;100230.92;109535;1271;22485;-64
2022/10/06 02:18:44;;;;;;;7.80;2.90;;;;;;;10.98;80.26;100231.95;109503;1271;22527;-64
2022/10/06 02:21:14;;;;;;;;;;;;;;;10.96;80.65;100229.09;109598;1271;23367;-65
2022/10/06 02:23:41;;;;;;;6.40;2.70;;;;;;;10.92;80.57;100229.63;109535;1271;22539;-65
2022/10/06 02:26:08;;;;;;;;;;;;;;;10.88;80.51;100229.54;109566;1271;22498;-65
2022/10/06 02:28:34;;;;;;;6.20;3.00;;;;;;;10.85;80.68;100233.16;109507;1270;22440;-65
2022/10/06 02:31:03;;;;;;;12.30;3.50;;;;;;;10.80;80.63;100230.56;109546;1271;22403;-65
2022/10/06 02:33:31;;;;;;;6.90;2.80;;;;;;;10.75;80.64;100235.75;109515;1271;22418;-65
2022/10/06 02:35:58;;;;;;;5.90;2.90;;;;;;;10.70;80.75;100236.52;109492;1271;23130;-65
2022/10/06 02:38:25;;;;;;;12.70;3.30;;;;;;;10.64;80.57;100242.26;109574;1270;22402;-65
2022/10/06 02:40:53;;;;;;;10.10;3.10;;;;;;;10.57;80.76;100244.52;109543;1270;22439;-71
2022/10/06 02:43:20;;;;;;;7.40;3.30;;;;;;;10.51;80.97;100244.16;109537;1271;22502;-70
2022/10/06 02:46:00;;;;;;;;;;;;;;;10.46;81.23;100245.84;109581;1270;22499;-71
2022/10/06 02:48:27;;;;;;;4.10;2.70;;;;;;;10.41;81.26;100245.05;109586;1271;22481;-70
2022/10/06 02:50:55;;;;;;;8.40;3.50;;;;;;;10.36;81.46;100244.13;109455;1271;22436;-72
2022/10/06 02:53:24;;;;;;;11.90;3.50;;;;;;;10.32;81.62;100245.29;109663;1270;22514;-71
2022/10/06 02:56:05;;;;;;;7.80;3.30;;;;;;;10.27;81.97;100244.31;109609;1271;23183;-71
2022/10/06 02:58:31;;;;;;;6.90;3.10;;;;;;;10.24;81.81;100247.46;109495;1271;22254;-71
2022/10/06 03:01:06;;;;;;;6.90;3.70;;;;;;;10.20;82.11;100248.43;109507;1271;22440;-71
2022/10/06 03:03:34;;;;;;;8.90;3.30;;;;;;;10.17;82.09;100246.58;109472;1271;22456;-71
2022/10/06 03:06:05;;;;;;;6.70;3.20;;;;;;;10.14;82.05;100247.95;109648;1270;23318;-73
2022/10/06 03:08:32;;;;;;;10.10;3.30;;;;;;;10.09;82.19;100249.23;109533;1271;22470;-72
2022/10/06 03:11:01;;;;;;;8.20;3.00;;;;;;;10.07;82.45;100249.33;109629;1271;22465;-73
2022/10/06 03:13:28;;;;;;;5.40;3.30;;;;;;;10.04;82.40;100248.66;109523;1270;22547;-73
2022/10/06 03:15:55;;;;;;;4.50;3.40;;;;;;;10.00;82.45;100249.39;109511;1271;23688;-73
2022/10/06 03:18:22;;;;;;;7.90;3.30;;;;;;;9.97;82.68;100246.04;109577;1270;22506;-72
2022/10/06 03:20:49;;;;;;;;;;;;;;;9.94;82.73;100242.93;109622;1271;22604;-72
2022/10/06 03:23:16;;;;;;;5.90;3.30;;;;;;;9.90;82.76;100240.94;109517;1271;22573;-70
2022/10/06 03:25:54;;;;;;;6.60;3.10;;;;;;;9.86;82.83;100245.23;109520;1271;23465;-70
2022/10/06 03:28:20;;;;;;;6.50;3.20;;;;;;;9.81;83.04;100241.96;109481;1270;22532;-70
2022/10/06 03:30:47;;;;;;;7.60;2.80;;;;;;;9.78;83.00;100238.20;109422;1273;23214;-71
2022/10/06 03:33:15;;;;;;;5.80;3.50;;;;;;;9.73;83.04;100240.30;109629;1270;22490;-71
2022/10/06 03:35:41;;;;;;;;;;;;;;;9.69;83.10;100239.41;109613;1271;22593;-71
2022/10/06 03:38:08;;;;;;;3.70;2.50;;;;;;;9.65;83.37;100243.91;109509;1270;22644;-69
2022/10/06 03:40:35;;;;;;;7.10;3.00;;;;;;;9.61;83.51;100242.98;109553;1271;22532;-69
2022/10/06 03:43:01;;;;;;;5.80;2.90;;;;;;;9.59;83.46;100247.40;109590;1271;22225;-67
2022/10/06 03:45:28;;;;;;;;;;;;;;;9.58;83.81;100243.94;109539;1270;22763;-68
2022/10/06 03:47:55;;;;;;;7.10;3.20;;;;;;;9.55;83.56;100246.92;109525;1271;22491;-66
2022/10/06 03:50:22;;;;;;;7.00;3.40;;;;;;;9.49;83.49;100251.34;109466;1270;22555;-66
2022/10/06 03:52:50;;;;;;;;;;;;;;;9.41;83.30;100251.11;109613;1271;23745;-66
2022/10/06 03:55:17;;;;;;;6.90;2.80;;;;;;;9.29;83.02;100256.03;109539;1270;22678;-65
2022/10/06 03:57:44;;;;;;;10.60;4.20;;;;;;;9.18;83.37;100253.52;109506;1270;22288;-65
2022/10/06 04:00:11;;;;;;;;;;;;;;;9.10;83.48;100256.02;109601;1270;22500;-65
2022/10/06 04:02:38;;;;;;;6.90;3.80;;;;;;;9.02;83.50;100251.44;109605;1271;22560;-66
2022/10/06 04:05:05;;;;;;;7.30;4.40;;;;;;;8.94;83.70;100248.54;109538;1270;22234;-66
2022/10/06 04:07:32;;;;;;;7.10;3.60;;;;;;;8.86;83.77;100246.21;109526;1270;22643;-65
2022/10/06 04:09:59;;;;;;;;;;;;;;;8.81;83.95;100252.70;109687;1270;22592;-65
2022/10/06 04:12:26;;;;;;;6.50;3.70;;;;;;;8.74;84.08;100255.56;109649;1270;25159;-65
2022/10/06 04:14:52;;;;;;;;;;;;;;;8.68;84.28;100257.59;109661;1270;22572;-66
2022/10/06 04:17:25;;;;;;;10.90;4.50;;;;;;;8.62;84.53;100260.39;109509;1270;22694;-65
2022/10/06 04:19:52;;;;;;;7.90;4.50;;;;;;;8.60;84.91;100257.83;109439;1273;23301;-66
2022/10/06 04:22:19;;;;;;;;;;;;;;;8.59;85.10;100264.40;109488;1273;22490;-65
2022/10/06 04:24:46;;;;;;;10.60;4.50;;;;;;;8.55;85.15;100260.91;109400;1273;22526;-65
2022/10/06 04:27:28;;;;;;;6.20;4.00;;;;;;;8.54;85.50;100261.85;109491;1273;23905;-65
2022/10/06 04:30:14;;;;;;;8.60;3.90;;;;;;;8.53;85.68;100260.02;109389;1271;23214;-65
2022/10/06 04:32:42;;;;;;;7.40;3.70;;;;;;;8.51;85.75;100264.98;109484;1273;22336;-66
2022/10/06 04:35:09;;;;;;;6.70;4.00;;;;;;;8.52;85.90;100270.11;109468;1273;22436;-65
2022/10/06 04:37:36;;;;;;;6.30;4.00;;;;;;;8.53;86.18;100271.01;109486;1273;22460;-66
2022/10/06 04:40:03;;;;;;;;;;;;;;;8.54;86.33;100273.39;109547;1273;23354;-72
2022/10/06 04:42:31;;;;;;;;;;;;;;;8.55;86.49;100273.45;109415;1273;22698;-73
2022/10/06 04:45:03;;;;;;;7.10;3.70;;;;;;;8.55;86.58;100276.84;109397;1273;22644;-72
2022/10/06 04:47:30;;;;;;;6.60;3.80;;;;;;;8.52;86.59;100276.20;109451;1273;22438;-71
2022/10/06 04:49:57;;;;;;;;;;;;;;;8.49;86.70;100276.09;109401;1273;23468;-71
2022/10/06 04:52:24;;;;;;;10.00;4.40;;;;;;;8.46;86.64;100278.33;109401;1273;22550;-71
2022/10/06 04:54:51;;;;;;;6.90;4.20;;;;;;;8.44;86.87;100284.20;109409;1272;23372;-72
2022/10/06 04:57:18;;;;;;;7.60;4.80;;;;;;;8.42;86.98;100284.43;109465;1273;22453;-70
2022/10/06 05:02:36;;;;;;;10.10;4.60;;;;;;;8.44;87.53;100279.39;109350;1272;22431;-71
2022/10/06 05:05:04;;;;;;;12.90;4.30;;;;;;;8.48;87.89;100275.65;109282;1274;23623;-72
2022/10/06 05:07:31;;;;;;;10.30;4.60;;;;;;;8.53;88.28;100277.70;109403;1273;22467;-73
2022/10/06 05:09:58;;;;;;;;;;;;;;;8.60;88.60;100279.05;109330;1273;22466;-74
2022/10/06 05:12:27;;;;;;;6.40;4.60;;;;;;;8.67;88.89;100280.55;109370;1271;22486;-72
2022/10/06 05:14:53;;;;;;;10.20;5.60;;;;;;;8.75;89.04;100281.39;109372;1272;22532;-72
2022/10/06 05:17:20;;;;;;;13.20;5.30;;;;;;;8.83;89.19;100284.28;109496;1271;22588;-72
2022/10/06 05:19:47;;;;;;;8.70;5.20;;;;;;;8.93;89.38;100280.04;109343;1270;22456;-72
2022/10/06 05:22:14;;;;;;;;;;;;;;;9.02;89.57;100284.44;109421;1271;22457;-72
2022/10/06 05:24:40;;;;;;;7.60;5.30;;;;;;;9.11;89.57;100283.39;109520;1270;22571;-72
2022/10/06 05:27:07;;;;;;;12.80;4.80;;;;;;;9.20;89.72;100283.06;109572;1270;22627;-72
2022/10/06 05:29:34;;;;;;;;;;;;;;;9.31;89.59;100284.58;109511;1270;22592;-72
2022/10/06 05:32:03;;;;;;;9.50;5.00;;;;;;;9.41;89.43;100284.80;109480;1270;23651;-71
2022/10/06 05:34:31;;;;;;;10.60;4.80;;;;;;;9.51;89.37;100285.98;109520;1270;22507;-67
2022/10/06 05:36:58;;;;;;;;;;;;;;;9.62;89.26;100288.29;109587;1270;22473;-72
2022/10/06 05:39:24;;;;;;;27.10;14.60;;;;;;;9.74;89.09;100288.91;109527;1270;22581;-66
2022/10/06 05:41:54;;;;;;;10.80;5.30;;;;;;;9.85;88.87;100288.00;109470;1270;22241;-67
2022/10/06 05:44:22;;;;;;;9.60;4.50;;;;;;;9.97;88.48;100289.32;109440;1270;23309;-67
2022/10/06 05:46:49;;;;;;;;;;;;;;;10.09;88.11;100288.73;109557;1271;22583;-66
2022/10/06 05:49:17;;;;;;;8.90;4.50;;;;;;;10.20;87.64;100290.44;109464;1272;22433;-67
2022/10/06 05:51:52;;;;;;;7.50;4.10;;;;;;;10.32;87.13;100286.77;109542;1270;22353;-67
2022/10/06 05:54:24;;;;;;;11.40;4.30;;;;;;;10.44;86.56;100288.92;109511;1272;23217;-67
2022/10/06 05:56:51;;;;;;;13.60;4.20;;;;;;;10.55;86.17;100285.81;109563;1269;22459;-67
2022/10/06 05:59:18;;;;;;;;;;;;;;;10.67;85.50;100287.15;109612;1270;22510;-68
2022/10/06 06:01:45;;;;;;;16.30;5.20;;;;;;;10.77;84.85;100290.21;109584;1270;23346;-65
2022/10/06 06:04:19;;;;;;;7.80;3.90;;;;;;;10.87;84.55;100288.95;109559;1270;22263;-67
2022/10/06 06:06:50;;;;;;;7.80;4.10;;;;;;;10.99;83.91;100292.98;109479;1270;23124;-67
2022/10/06 06:09:20;;;;;;;10.80;3.40;;;;;;;11.09;83.41;100292.56;109488;1271;22474;-66
2022/10/06 06:11:49;;;;;;;8.80;3.50;;;;;;;11.19;83.15;100293.47;109494;1271;22450;-66
2022/10/06 06:15:59;;;;;;;10.90;4.60;;;;;;;11.30;82.57;100294.66;109584;1270;22465;-67
2022/10/06 06:17:13;;;;;;;11.10;4.00;;;;;;;11.42;82.07;100298.27;109537;1270;22227;-66
2022/10/06 06:19:40;;;;;;;;;;;;;;;11.50;81.21;100299.63;109694;1269;22673;-66
2022/10/06 06:22:07;;;;;;;10.10;3.50;;;;;;;11.59;80.58;100301.56;109496;1271;22427;-66
2022/10/06 06:24:37;;;;;;;9.30;3.60;;;;;;;11.65;79.87;100299.95;109505;1271;23373;-65
2022/10/06 06:27:03;;;;;;;;;;;;;;;11.73;79.20;100299.42;109683;1271;22491;-66
2022/10/06 06:29:30;;;;;;;5.60;3.20;;;;;;;11.80;79.00;100305.10;109550;1270;22444;-68
2022/10/06 06:31:57;;;;;;;;;;;;;;;11.87;78.36;100302.26;109563;1270;22517;-67
2022/10/06 06:34:25;;;;;;;59.00;35.70;;;;;;;11.95;78.15;100301.02;109606;1271;22446;-67
2022/10/06 06:36:54;;;;;;;29.50;14.50;;;;;;;12.04;77.85;100301.39;109559;1270;22334;-67
2022/10/06 06:39:21;;;;;;;7.60;4.60;;;;;;;12.13;77.67;100299.52;109628;1270;22560;-72
2022/10/06 06:41:49;;;;;;;10.70;3.90;;;;;;;12.21;77.57;100297.96;109523;1270;23709;-71
2022/10/06 06:44:34;;;;;;;9.50;4.20;;;;;;;12.31;76.62;100298.27;109670;1270;22492;-72
2022/10/06 06:47:05;;;;;;;9.90;3.90;;;;;;;12.39;76.11;100300.31;109560;1270;23628;-72
2022/10/06 06:49:32;;;;;;;10.90;4.80;;;;;;;12.45;75.61;100299.51;109530;1270;23151;-72
2022/10/06 06:52:04;;;;;;;9.30;4.00;;;;;;;12.51;75.36;100299.49;109561;1270;22429;-72
2022/10/06 06:54:32;;;;;;;9.70;4.00;;;;;;;12.57;75.08;100301.04;109535;1270;22465;-72
2022/10/06 06:57:04;;;;;;;13.50;4.90;;;;;;;12.62;74.66;100297.73;109527;1270;22457;-72
2022/10/06 06:59:32;;;;;;;58.80;31.30;;;;;;;12.67;74.21;100299.19;109569;1270;22433;-68
2022/10/06 07:01:59;;;;;;;31.80;16.50;;;;;;;12.70;74.15;100299.16;109584;1270;22571;-72
2022/10/06 07:04:29;;;;;;;13.00;5.90;;;;;;;12.75;74.14;100297.46;109542;1270;22464;-72
2022/10/06 07:06:56;;;;;;;14.80;5.90;;;;;;;12.79;73.73;100291.95;109493;1271;22504;-72
2022/10/06 07:09:29;;;;;;;12.60;5.50;;;;;;;12.83;73.52;100289.65;109527;1271;22416;-70
2022/10/06 07:12:10;;;;;;;10.00;4.10;;;;;;;12.85;73.36;100286.70;109259;1273;139412;-70
2022/10/06 07:25:05;;;;;;;8.60;4.40;;;;;;;12.89;73.46;100286.64;109213;1274;22303;-69
2022/10/06 07:25:45;;;;;;;8.40;4.50;;;;;;;13.09;73.03;100295.40;109224;1274;22585;-71
2022/10/06 07:28:15;;;;;;;7.50;3.50;;;;;;;13.15;73.11;100294.98;109195;1274;22464;-70
2022/10/06 07:30:43;;;;;;;9.00;4.40;;;;;;;13.20;72.74;100294.67;109059;1274;139587;-69
2022/10/06 07:33:14;;;;;;;9.60;3.90;;;;;;;13.26;72.82;100296.82;109189;1276;22576;-69
2022/10/06 07:35:42;;;;;;;13.10;4.80;;;;;;;13.32;72.64;100290.52;109266;1274;138153;-69
2022/10/06 07:38:09;;;;;;;5.70;3.70;;;;;;;13.37;72.45;100287.68;109296;1274;22480;-69
2022/10/06 07:40:40;;;;;;;8.90;4.30;;;;;;;13.41;72.31;100284.01;109252;1275;22473;-67
2022/10/06 07:43:28;;;;;;;13.50;4.40;;;;;;;13.46;72.17;100284.48;109112;1273;137709;-68
2022/10/06 07:45:56;;;;;;;6.00;4.00;;;;;;;13.49;72.05;100282.08;109209;1274;22469;-67
2022/10/06 07:48:30;;;;;;;9.20;4.10;;;;;;;13.53;72.04;100284.90;109126;1273;139588;-67
2022/10/06 07:51:01;;;;;;;11.60;4.60;;;;;;;13.58;71.82;100283.30;109304;1274;22436;-67
2022/10/06 07:53:34;;;;;;;11.30;4.70;;;;;;;13.63;71.91;100279.56;109165;1274;138553;-67
2022/10/06 07:56:07;;;;;;;7.80;4.40;;;;;;;13.69;71.93;100282.70;109306;1274;23698;-67
2022/10/06 07:58:38;;;;;;;11.20;4.50;;;;;;;13.75;71.54;100276.23;109192;1274;22471;-68
2022/10/06 08:01:07;;;;;;;14.10;4.70;;;;;;;13.80;71.64;100275.90;109237;1274;140179;-68
2022/10/06 08:03:35;;;;;;;10.60;6.10;;;;;;;13.86;71.67;100271.77;109342;1274;23622;-68
2022/10/06 08:06:02;;;;;;;14.10;7.10;;;;;;;13.94;71.50;100271.63;109228;1274;138328;-67
2022/10/06 08:08:30;;;;;;;11.60;5.60;;;;;;;14.00;71.68;100268.55;109441;1274;22507;-67
2022/10/06 08:10:57;;;;;;;10.90;4.80;;;;;;;14.07;71.65;100265.86;109320;1274;22452;-66
2022/10/06 08:13:27;;;;;;;9.00;5.10;;;;;;;14.15;71.13;100264.65;109284;1274;139531;-66
2022/10/06 08:15:55;;;;;;;9.60;5.80;;;;;;;14.20;70.60;100266.11;109331;1274;23222;-65
2022/10/06 08:18:23;;;;;;;10.20;5.10;;;;;;;14.25;70.23;100268.69;109334;1274;138045;-65
2022/10/06 08:21:18;;;;;;;291.00;209.50;;;;;;;14.30;70.35;100266.01;109390;1274;22425;-64
2022/10/06 08:23:45;;;;;;;21.60;12.60;;;;;;;14.36;70.00;100265.90;109380;1274;138786;-65
2022/10/06 08:26:13;;;;;;;12.00;6.30;;;;;;;14.41;69.86;100260.10;109410;1274;22458;-66
2022/10/06 08:28:42;;;;;;;9.00;4.40;;;;;;;14.46;69.81;100262.69;109305;1273;24114;-65
2022/10/06 08:31:14;;;;;;;7.50;3.90;;;;;;;14.51;69.77;100260.04;109140;1273;137969;-65
2022/10/06 08:33:41;;;;;;;6.90;4.50;;;;;;;14.57;69.27;100257.11;108398;1274;1322847;-65
2022/10/06 08:37:31;;;;;;;9.30;4.50;;;;;;;14.65;68.80;100250.56;101686;1312;545049;-65
2022/10/06 08:39:58;;;;;;;5.30;3.30;;;;;;;14.69;68.89;100248.62;104113;1287;26796;-65
2022/10/06 08:42:33;;;;;;;4.50;3.30;;;;;;;14.74;68.48;100243.91;103758;1287;137744;-68
2022/10/06 08:45:09;;;;;;;13.00;7.80;;;;;;;14.79;68.43;100247.05;103789;1287;23329;-64
2022/10/06 08:47:36;;;;;;;10.60;5.30;;;;;;;14.85;68.74;100249.23;103726;1289;138804;-66
2022/10/06 08:50:05;;;;;;;7.50;4.10;;;;;;;14.91;68.18;100246.56;103194;1289;915491;-67
2022/10/06 08:52:46;;;;;;;6.30;3.30;;;;;;;14.96;67.68;100246.42;103947;1286;22608;-67
2022/10/06 08:55:31;;;;;;;8.80;3.40;;;;;;;15.01;67.53;100247.03;103875;1287;138334;-64
2022/10/06 08:58:29;;;;;;;12.50;4.00;;;;;;;15.06;67.90;100246.33;104719;1278;22564;-63
2022/10/06 09:01:12;;;;;;;8.60;3.20;;;;;;;15.10;67.79;100242.79;104509;1280;137635;-64
2022/10/06 09:03:39;;;;;;;380.70;309.70;;;;;;;15.15;67.71;100241.91;104730;1278;24386;-67
2022/10/06 09:06:17;;;;;;;45.00;32.00;;;;;;;15.21;67.91;100241.11;104536;1280;140260;-63
2022/10/06 09:08:53;;;;;;;13.10;8.60;;;;;;;15.29;67.93;100241.79;104685;1277;22628;-62
2022/10/06 09:11:58;;;;;;;8.00;5.70;;;;;;;15.36;67.68;100243.61;104584;1278;138851;-63
2022/10/06 09:14:49;;;;;;;10.10;4.90;;;;;;;15.43;67.41;100245.45;104549;1281;22638;-61
2022/10/06 09:17:21;;;;;;;6.40;3.80;;;;;;;15.49;67.07;100241.66;104505;1279;138894;-62
2022/10/06 09:20:22;;;;;;;5.40;3.10;;;;;;;15.56;66.54;100242.63;108656;1280;23510;-60
2022/10/06 09:22:49;;;;;;;9.00;4.00;;;;;;;15.62;66.47;100243.61;108663;1277;22512;-61
2022/10/06 09:25:19;;;;;;;9.40;3.40;;;;;;;15.68;66.13;100245.45;108834;1279;138170;-62
2022/10/06 09:27:49;;;;;;;9.10;3.10;;;;;;;15.73;65.60;100246.21;108724;1279;23149;-64
2022/10/06 09:30:16;;;;;;;9.40;3.60;;;;;;;15.79;65.47;100249.79;108565;1279;138979;-64
2022/10/06 09:32:46;;;;;;;7.00;3.80;;;;;;;15.84;65.50;100247.48;108571;1279;22466;-64
2022/10/06 09:35:20;;;;;;;4.70;3.30;;;;;;;15.89;65.66;100245.93;108781;1279;22583;-64
2022/10/06 09:37:53;;;;;;;9.40;3.90;;;;;;;15.96;65.21;100243.26;108911;1280;22479;-65
2022/10/06 09:40:32;;;;;;;6.40;3.50;;;;;;;16.02;65.04;100244.10;108976;1280;22269;-64
2022/10/06 09:42:59;;;;;;;70.00;52.10;;;;;;;16.09;64.74;100238.89;108700;1277;138068;-69
2022/10/06 09:45:27;;;;;;;15.20;9.30;;;;;;;16.16;64.58;100239.10;108696;1279;23139;-72
2022/10/06 09:47:54;;;;;;;12.50;4.10;;;;;;;16.22;63.90;100241.34;108881;1279;138782;-63
2022/10/06 09:50:21;;;;;;;5.40;3.40;;;;;;;16.30;63.72;100242.92;108799;1280;22994;-61
2022/10/06 09:52:58;;;;;;;5.30;3.40;;;;;;;16.36;63.53;100245.83;108721;1280;22468;-59
2022/10/06 09:55:28;;;;;;;11.40;3.70;;;;;;;16.42;63.10;100241.48;108780;1279;138326;-62
2022/10/06 09:57:56;;;;;;;7.10;3.40;;;;;;;16.47;62.58;100242.21;108747;1278;23248;-64
2022/10/06 10:00:37;;;;;;;5.40;3.80;;;;;;;16.51;62.16;100241.77;108593;1281;137979;-61
2022/10/06 10:03:08;;;;;;;8.40;4.00;;;;;;;16.56;61.35;100243.14;109038;1279;22437;-61
2022/10/06 10:05:36;;;;;;;6.00;3.30;;;;;;;16.59;61.34;100243.55;108723;1280;163603;-61
2022/10/06 10:08:26;;;;;;;8.50;3.30;;;;;;;16.65;61.22;100241.37;108835;1280;22469;-61
2022/10/06 10:12:23;;;;;;;11.30;4.50;;;;;;;16.71;61.31;100234.60;108661;1280;22459;-62
2022/10/06 10:13:58;;;;;;;6.80;3.80;;;;;;;16.77;61.22;100232.74;109014;1280;23144;-62
2022/10/06 10:16:33;;;;;;;7.80;3.40;;;;;;;16.81;60.64;100229.37;108775;1280;23156;-61
2022/10/06 10:19:04;;;;;;;6.80;3.00;;;;;;;16.85;60.46;100230.02;108548;1280;137867;-63
2022/10/06 10:21:35;;;;;;;4.50;2.90;;;;;;;16.90;60.40;100227.34;108996;1280;23234;-64
2022/10/06 10:24:05;;;;;;;5.50;3.20;;;;;;;16.94;60.09;100230.08;108921;1279;138936;-66
2022/10/06 10:26:56;;;;;;;203.80;151.40;;;;;;;16.98;60.18;100226.77;108715;1278;23274;-63
2022/10/06 10:29:32;;;;;;;23.40;15.10;;;;;;;17.01;59.92;100226.04;108585;1279;138200;-66
2022/10/06 10:32:37;;;;;;;8.60;4.40;;;;;;;17.04;59.51;100225.02;108977;1280;22453;-65
2022/10/06 10:35:21;;;;;;;11.60;5.90;;;;;;;17.07;59.53;100226.38;108797;1280;23528;-66
2022/10/06 10:38:17;;;;;;;8.40;4.70;;;;;;;17.10;59.66;100219.48;108612;1281;22465;-65
2022/10/06 10:40:49;;;;;;;7.30;3.60;;;;;;;17.16;59.92;100219.33;105660;1281;25388;-63
2022/10/06 10:43:24;;;;;;;14.00;4.50;;;;;;;17.21;59.62;100218.09;108693;1281;137955;-64
2022/10/06 10:45:58;;;;;;;6.30;3.50;;;;;;;17.26;58.94;100218.23;108772;1281;23213;-64
2022/10/06 10:48:34;;;;;;;6.70;3.40;;;;;;;17.29;58.61;100218.33;108704;1281;138483;-65
2022/10/06 10:51:06;;;;;;;5.90;2.90;;;;;;;17.32;58.16;100214.65;108780;1281;22493;-64
2022/10/06 10:53:59;;;;;;;8.30;3.50;;;;;;;17.34;57.88;100212.49;108707;1281;137990;-64
2022/10/06 10:56:26;;;;;;;7.00;3.40;;;;;;;17.38;58.08;100210.55;108540;1281;22705;-65
2022/10/06 10:58:55;;;;;;;7.60;3.60;;;;;;;17.39;57.87;100213.40;108660;1280;22472;-64
2022/10/06 11:01:31;;;;;;;10.20;3.60;;;;;;;17.41;58.25;100208.66;108476;1281;138302;-64
2022/10/06 11:03:58;;;;;;;9.00;3.80;;;;;;;17.44;58.35;100209.46;108577;1281;22698;-65
2022/10/06 11:07:07;;;;;;;6.90;3.30;;;;;;;17.47;57.98;100208.49;108501;1281;137194;-66
2022/10/06 11:09:49;;;;;;;7.40;2.80;;;;;;;17.53;57.74;100209.27;108124;1286;22465;-65
2022/10/06 11:12:22;;;;;;;6.20;2.90;;;;;;;17.57;57.33;100209.26;108047;1285;139180;-65
2022/10/06 11:15:04;;;;;;;5.10;3.00;;;;;;;17.60;57.13;100200.08;108167;1287;23528;-66
2022/10/06 11:17:43;;;;;;;5.50;3.30;;;;;;;17.62;57.01;100195.65;107949;1286;139773;-65
2022/10/06 11:20:28;;;;;;;25.30;15.30;;;;;;;17.65;56.99;100194.72;108069;1286;22574;-68
2022/10/06 11:23:20;;;;;;;10.60;5.20;;;;;;;17.67;56.87;100192.44;108355;1284;22664;-64
2022/10/06 11:26:08;;;;;;;10.80;3.80;;;;;;;17.71;57.13;100190.98;107462;1293;22487;-62
2022/10/06 11:29:17;;;;;;;12.00;3.20;;;;;;;17.74;56.71;100189.42;107364;1294;22475;-64
2022/10/06 11:31:53;;;;;;;7.30;3.20;;;;;;;17.76;56.02;100185.69;107440;1292;23638;-65
2022/10/06 11:34:20;;;;;;;10.40;3.10;;;;;;;17.78;55.85;100186.45;107351;1293;22471;-70
2022/10/06 11:37:11;;;;;;;6.40;3.50;;;;;;;17.78;55.29;100185.61;107428;1291;137724;-67
2022/10/06 11:39:56;;;;;;;5.00;3.20;;;;;;;17.80;55.23;100189.35;106867;1290;22607;-68
2022/10/06 11:42:49;;;;;;;7.30;3.50;;;;;;;17.81;55.03;100187.41;107968;1287;138440;-71
2022/10/06 11:45:19;;;;;;;5.00;2.70;;;;;;;17.85;55.29;100184.69;107765;1287;23567;-67
2022/10/06 11:47:55;;;;;;;6.10;3.40;;;;;;;17.89;55.39;100185.73;108097;1286;137940;-66
2022/10/06 11:50:35;;;;;;;6.10;3.30;;;;;;;17.93;55.18;100181.39;108258;1287;22578;-66
2022/10/06 11:53:05;;;;;;;4.50;3.00;;;;;;;17.96;55.13;100182.70;108205;1287;23305;-65
2022/10/06 11:55:32;;;;;;;6.10;3.00;;;;;;;17.99;54.75;100183.67;108023;1286;138267;-65